sensor_id;sensor_type;location;lat;lon;timestamp;P1;durP1;ratioP1;P2;durP2;ratioP2
11504;SDS011;5809;53.262;10.408;2023-06-14T00:00:35;5.68;;;3.30;;
11504;SDS011;5809;53.262;10.408;2023-06-14T00:03:04;6.38;;;3.20;;
11504;SDS011;5809;53.262;10.408;2023-06-14T00:05:31;6.18;;;3.15;;
11504;SDS011;5809;53.262;10.408;2023-06-14T00:08:03;9.07;;;3.15;;
11504;SDS011;5809;53.262;10.408;2023-06-14T00:10:33;5.15;;;3.33;;
11504;SDS011;5809;53.262;10.408;2023-06-14T00:13:01;10.55;;;3.17;;
11504;SDS011;5809;53.262;10.408;2023-06-14T00:15:29;3.55;;;2.83;;
11504;SDS011;5809;53.262;10.408;2023-06-14T00:17:57;5.28;;;3.45;;
11504;SDS011;5809;53.262;10.408;2023-06-14T00:20:25;6.00;;;3.45;;
11504;SDS011;5809;53.262;10.408;2023-06-14T00:22:52;5.38;;;3.20;;
11504;SDS011;5809;53.262;10.408;2023-06-14T00:25:20;6.33;;;3.40;;
11504;SDS011;5809;53.262;10.408;2023-06-14T00:27:48;11.02;;;3.25;;
11504;SDS011;5809;53.262;10.408;2023-06-14T00:30:16;5.30;;;3.40;;
11504;SDS011;5809;53.262;10.408;2023-06-14T00:32:44;4.93;;;3.50;;
11504;SDS011;5809;53.262;10.408;2023-06-14T00:35:11;6.35;;;3.10;;
11504;SDS011;5809;53.262;10.408;2023-06-14T00:37:38;7.20;;;3.38;;
11504;SDS011;5809;53.262;10.408;2023-06-14T00:40:05;6.15;;;3.80;;
11504;SDS011;5809;53.262;10.408;2023-06-14T00:42:33;4.60;;;3.15;;
11504;SDS011;5809;53.262;10.408;2023-06-14T00:45:00;6.18;;;3.50;;
11504;SDS011;5809;53.262;10.408;2023-06-14T00:47:28;6.73;;;3.13;;
11504;SDS011;5809;53.262;10.408;2023-06-14T00:49:55;6.23;;;3.17;;
11504;SDS011;5809;53.262;10.408;2023-06-14T00:52:23;5.70;;;3.38;;
11504;SDS011;5809;53.262;10.408;2023-06-14T00:54:50;6.97;;;3.33;;
11504;SDS011;5809;53.262;10.408;2023-06-14T00:57:17;5.77;;;3.10;;
11504;SDS011;5809;53.262;10.408;2023-06-14T00:59:46;5.88;;;3.15;;
11504;SDS011;5809;53.262;10.408;2023-06-14T01:02:14;6.85;;;3.40;;
11504;SDS011;5809;53.262;10.408;2023-06-14T01:04:45;5.80;;;3.30;;
11504;SDS011;5809;53.262;10.408;2023-06-14T01:07:15;4.70;;;3.33;;
11504;SDS011;5809;53.262;10.408;2023-06-14T01:09:55;7.10;;;3.47;;
11504;SDS011;5809;53.262;10.408;2023-06-14T01:12:35;6.67;;;3.40;;
11504;SDS011;5809;53.262;10.408;2023-06-14T01:15:08;5.38;;;3.15;;
11504;SDS011;5809;53.262;10.408;2023-06-14T01:17:36;4.45;;;3.17;;
11504;SDS011;5809;53.262;10.408;2023-06-14T01:20:10;4.97;;;3.47;;
11504;SDS011;5809;53.262;10.408;2023-06-14T01:22:47;4.30;;;3.30;;
11504;SDS011;5809;53.262;10.408;2023-06-14T01:25:16;4.63;;;3.17;;
11504;SDS011;5809;53.262;10.408;2023-06-14T01:27:45;5.60;;;3.57;;
11504;SDS011;5809;53.262;10.408;2023-06-14T01:30:14;6.33;;;3.23;;
11504;SDS011;5809;53.262;10.408;2023-06-14T01:32:42;7.53;;;3.53;;
11504;SDS011;5809;53.262;10.408;2023-06-14T01:35:10;8.00;;;3.17;;
11504;SDS011;5809;53.262;10.408;2023-06-14T01:37:37;5.90;;;3.53;;
11504;SDS011;5809;53.262;10.408;2023-06-14T01:40:06;6.70;;;3.50;;
11504;SDS011;5809;53.262;10.408;2023-06-14T01:42:35;6.03;;;3.22;;
11504;SDS011;5809;53.262;10.408;2023-06-14T01:45:05;7.90;;;3.20;;
11504;SDS011;5809;53.262;10.408;2023-06-14T01:47:33;5.73;;;3.40;;
11504;SDS011;5809;53.262;10.408;2023-06-14T01:50:01;4.50;;;3.30;;
11504;SDS011;5809;53.262;10.408;2023-06-14T01:52:29;5.60;;;3.25;;
11504;SDS011;5809;53.262;10.408;2023-06-14T01:54:55;5.60;;;3.60;;
11504;SDS011;5809;53.262;10.408;2023-06-14T01:57:24;8.17;;;3.10;;
11504;SDS011;5809;53.262;10.408;2023-06-14T01:59:52;4.90;;;3.40;;
11504;SDS011;5809;53.262;10.408;2023-06-14T02:02:19;5.32;;;3.47;;
11504;SDS011;5809;53.262;10.408;2023-06-14T02:04:46;8.13;;;3.00;;
11504;SDS011;5809;53.262;10.408;2023-06-14T02:07:13;7.10;;;3.23;;
11504;SDS011;5809;53.262;10.408;2023-06-14T02:09:40;5.90;;;3.10;;
11504;SDS011;5809;53.262;10.408;2023-06-14T02:12:07;6.83;;;3.30;;
11504;SDS011;5809;53.262;10.408;2023-06-14T02:14:37;4.60;;;3.20;;
11504;SDS011;5809;53.262;10.408;2023-06-14T02:17:04;6.03;;;3.40;;
11504;SDS011;5809;53.262;10.408;2023-06-14T02:19:31;7.33;;;3.27;;
11504;SDS011;5809;53.262;10.408;2023-06-14T02:21:59;10.00;;;3.30;;
11504;SDS011;5809;53.262;10.408;2023-06-14T02:24:26;7.70;;;3.53;;
11504;SDS011;5809;53.262;10.408;2023-06-14T02:26:53;5.43;;;3.57;;
11504;SDS011;5809;53.262;10.408;2023-06-14T02:29:20;4.33;;;3.40;;
11504;SDS011;5809;53.262;10.408;2023-06-14T02:31:48;7.03;;;3.50;;
11504;SDS011;5809;53.262;10.408;2023-06-14T02:34:15;6.40;;;3.40;;
11504;SDS011;5809;53.262;10.408;2023-06-14T02:36:43;6.13;;;3.20;;
11504;SDS011;5809;53.262;10.408;2023-06-14T02:39:10;9.13;;;4.00;;
11504;SDS011;5809;53.262;10.408;2023-06-14T02:41:37;5.87;;;3.20;;
11504;SDS011;5809;53.262;10.408;2023-06-14T02:44:04;8.87;;;3.80;;
11504;SDS011;5809;53.262;10.408;2023-06-14T02:46:32;5.23;;;3.40;;
11504;SDS011;5809;53.262;10.408;2023-06-14T02:49:00;4.43;;;3.60;;
11504;SDS011;5809;53.262;10.408;2023-06-14T02:51:27;7.47;;;3.77;;
11504;SDS011;5809;53.262;10.408;2023-06-14T02:53:54;6.37;;;3.50;;
11504;SDS011;5809;53.262;10.408;2023-06-14T02:56:21;5.13;;;3.50;;
11504;SDS011;5809;53.262;10.408;2023-06-14T02:58:48;5.73;;;3.23;;
11504;SDS011;5809;53.262;10.408;2023-06-14T03:01:15;8.87;;;3.73;;
11504;SDS011;5809;53.262;10.408;2023-06-14T03:03:43;8.93;;;3.77;;
11504;SDS011;5809;53.262;10.408;2023-06-14T03:06:11;7.47;;;4.17;;
11504;SDS011;5809;53.262;10.408;2023-06-14T03:08:39;7.10;;;3.67;;
11504;SDS011;5809;53.262;10.408;2023-06-14T03:11:06;5.90;;;3.80;;
11504;SDS011;5809;53.262;10.408;2023-06-14T03:13:34;9.07;;;3.60;;
11504;SDS011;5809;53.262;10.408;2023-06-14T03:16:00;6.90;;;3.67;;
11504;SDS011;5809;53.262;10.408;2023-06-14T03:18:29;5.47;;;3.77;;
11504;SDS011;5809;53.262;10.408;2023-06-14T03:21:00;7.10;;;3.90;;
11504;SDS011;5809;53.262;10.408;2023-06-14T03:23:29;6.33;;;3.67;;
11504;SDS011;5809;53.262;10.408;2023-06-14T03:25:56;6.47;;;4.00;;
11504;SDS011;5809;53.262;10.408;2023-06-14T03:28:23;6.07;;;3.87;;
11504;SDS011;5809;53.262;10.408;2023-06-14T03:30:49;6.23;;;3.60;;
11504;SDS011;5809;53.262;10.408;2023-06-14T03:33:17;6.67;;;4.03;;
11504;SDS011;5809;53.262;10.408;2023-06-14T03:35:44;10.53;;;4.20;;
11504;SDS011;5809;53.262;10.408;2023-06-14T03:38:11;5.27;;;3.93;;
11504;SDS011;5809;53.262;10.408;2023-06-14T03:40:39;5.70;;;3.93;;
11504;SDS011;5809;53.262;10.408;2023-06-14T03:43:06;6.37;;;4.23;;
11504;SDS011;5809;53.262;10.408;2023-06-14T03:45:33;8.53;;;4.30;;
11504;SDS011;5809;53.262;10.408;2023-06-14T03:48:00;7.27;;;4.43;;
11504;SDS011;5809;53.262;10.408;2023-06-14T03:50:27;8.57;;;4.80;;
11504;SDS011;5809;53.262;10.408;2023-06-14T03:52:54;9.10;;;4.13;;
11504;SDS011;5809;53.262;10.408;2023-06-14T03:55:21;10.13;;;4.83;;
11504;SDS011;5809;53.262;10.408;2023-06-14T03:57:51;5.43;;;4.20;;
11504;SDS011;5809;53.262;10.408;2023-06-14T04:00:18;8.43;;;4.27;;
11504;SDS011;5809;53.262;10.408;2023-06-14T04:02:46;8.73;;;4.70;;
11504;SDS011;5809;53.262;10.408;2023-06-14T04:05:12;6.83;;;4.47;;
11504;SDS011;5809;53.262;10.408;2023-06-14T04:07:41;11.80;;;4.67;;
11504;SDS011;5809;53.262;10.408;2023-06-14T04:10:10;8.57;;;4.40;;
11504;SDS011;5809;53.262;10.408;2023-06-14T04:12:38;7.77;;;4.33;;
11504;SDS011;5809;53.262;10.408;2023-06-14T04:15:07;6.87;;;4.63;;
11504;SDS011;5809;53.262;10.408;2023-06-14T04:17:35;6.93;;;4.60;;
11504;SDS011;5809;53.262;10.408;2023-06-14T04:20:03;6.00;;;4.40;;
11504;SDS011;5809;53.262;10.408;2023-06-14T04:22:32;7.73;;;5.03;;
11504;SDS011;5809;53.262;10.408;2023-06-14T04:25:01;13.90;;;4.70;;
11504;SDS011;5809;53.262;10.408;2023-06-14T04:27:31;7.60;;;4.23;;
11504;SDS011;5809;53.262;10.408;2023-06-14T04:30:01;5.80;;;4.80;;
11504;SDS011;5809;53.262;10.408;2023-06-14T04:32:30;8.80;;;4.80;;
11504;SDS011;5809;53.262;10.408;2023-06-14T04:34:58;11.57;;;5.27;;
11504;SDS011;5809;53.262;10.408;2023-06-14T04:37:27;8.93;;;5.13;;
11504;SDS011;5809;53.262;10.408;2023-06-14T04:39:54;8.57;;;4.63;;
11504;SDS011;5809;53.262;10.408;2023-06-14T04:42:22;9.90;;;4.88;;
11504;SDS011;5809;53.262;10.408;2023-06-14T04:44:50;8.27;;;5.03;;
11504;SDS011;5809;53.262;10.408;2023-06-14T04:47:21;8.97;;;5.20;;
11504;SDS011;5809;53.262;10.408;2023-06-14T04:49:51;7.80;;;5.27;;
11504;SDS011;5809;53.262;10.408;2023-06-14T04:52:18;7.55;;;4.57;;
11504;SDS011;5809;53.262;10.408;2023-06-14T04:54:46;9.50;;;5.47;;
11504;SDS011;5809;53.262;10.408;2023-06-14T04:57:13;10.93;;;5.17;;
11504;SDS011;5809;53.262;10.408;2023-06-14T04:59:42;8.67;;;5.27;;
11504;SDS011;5809;53.262;10.408;2023-06-14T05:02:09;7.85;;;4.18;;
11504;SDS011;5809;53.262;10.408;2023-06-14T05:04:36;6.13;;;4.63;;
11504;SDS011;5809;53.262;10.408;2023-06-14T05:07:07;8.68;;;5.40;;
11504;SDS011;5809;53.262;10.408;2023-06-14T05:09:34;7.68;;;5.32;;
11504;SDS011;5809;53.262;10.408;2023-06-14T05:12:01;8.52;;;4.68;;
11504;SDS011;5809;53.262;10.408;2023-06-14T05:14:28;7.22;;;4.50;;
11504;SDS011;5809;53.262;10.408;2023-06-14T05:16:55;10.10;;;4.90;;
11504;SDS011;5809;53.262;10.408;2023-06-14T05:19:22;9.13;;;5.00;;
11504;SDS011;5809;53.262;10.408;2023-06-14T05:21:49;8.68;;;4.65;;
11504;SDS011;5809;53.262;10.408;2023-06-14T05:24:18;7.63;;;4.68;;
11504;SDS011;5809;53.262;10.408;2023-06-14T05:26:45;4.85;;;4.00;;
11504;SDS011;5809;53.262;10.408;2023-06-14T05:29:12;8.60;;;4.43;;
11504;SDS011;5809;53.262;10.408;2023-06-14T05:31:39;5.82;;;4.30;;
11504;SDS011;5809;53.262;10.408;2023-06-14T05:34:05;8.80;;;4.53;;
11504;SDS011;5809;53.262;10.408;2023-06-14T05:36:32;6.20;;;4.20;;
11504;SDS011;5809;53.262;10.408;2023-06-14T05:39:02;6.07;;;4.18;;
11504;SDS011;5809;53.262;10.408;2023-06-14T05:41:31;5.85;;;4.00;;
11504;SDS011;5809;53.262;10.408;2023-06-14T05:43:58;6.15;;;4.57;;
11504;SDS011;5809;53.262;10.408;2023-06-14T05:46:25;7.82;;;4.43;;
11504;SDS011;5809;53.262;10.408;2023-06-14T05:48:53;4.90;;;3.60;;
11504;SDS011;5809;53.262;10.408;2023-06-14T05:51:21;6.40;;;4.00;;
11504;SDS011;5809;53.262;10.408;2023-06-14T05:53:49;8.32;;;4.38;;
11504;SDS011;5809;53.262;10.408;2023-06-14T05:56:17;8.35;;;4.20;;
11504;SDS011;5809;53.262;10.408;2023-06-14T05:58:46;6.72;;;4.00;;
11504;SDS011;5809;53.262;10.408;2023-06-14T06:01:13;9.88;;;4.28;;
11504;SDS011;5809;53.262;10.408;2023-06-14T06:03:41;8.45;;;4.47;;
11504;SDS011;5809;53.262;10.408;2023-06-14T06:06:10;5.90;;;3.97;;
11504;SDS011;5809;53.262;10.408;2023-06-14T06:08:37;8.55;;;4.53;;
11504;SDS011;5809;53.262;10.408;2023-06-14T06:11:05;7.13;;;3.60;;
11504;SDS011;5809;53.262;10.408;2023-06-14T06:13:32;6.53;;;3.78;;
11504;SDS011;5809;53.262;10.408;2023-06-14T06:16:01;6.63;;;3.72;;
11504;SDS011;5809;53.262;10.408;2023-06-14T06:18:28;5.68;;;3.50;;
11504;SDS011;5809;53.262;10.408;2023-06-14T06:20:55;7.60;;;4.20;;
11504;SDS011;5809;53.262;10.408;2023-06-14T06:23:22;8.48;;;4.00;;
11504;SDS011;5809;53.262;10.408;2023-06-14T06:25:49;5.93;;;4.05;;
11504;SDS011;5809;53.262;10.408;2023-06-14T06:28:16;6.20;;;3.85;;
11504;SDS011;5809;53.262;10.408;2023-06-14T06:30:43;5.28;;;3.85;;
11504;SDS011;5809;53.262;10.408;2023-06-14T06:33:11;7.25;;;3.60;;
11504;SDS011;5809;53.262;10.408;2023-06-14T06:35:39;6.50;;;3.63;;
11504;SDS011;5809;53.262;10.408;2023-06-14T06:38:06;5.22;;;3.55;;
11504;SDS011;5809;53.262;10.408;2023-06-14T06:40:33;8.20;;;3.85;;
11504;SDS011;5809;53.262;10.408;2023-06-14T06:43:01;7.55;;;3.67;;
11504;SDS011;5809;53.262;10.408;2023-06-14T06:45:28;6.38;;;3.47;;
11504;SDS011;5809;53.262;10.408;2023-06-14T06:47:55;11.27;;;4.15;;
11504;SDS011;5809;53.262;10.408;2023-06-14T06:50:24;3.75;;;3.40;;
11504;SDS011;5809;53.262;10.408;2023-06-14T06:52:51;5.90;;;3.38;;
11504;SDS011;5809;53.262;10.408;2023-06-14T06:55:18;6.85;;;3.75;;
11504;SDS011;5809;53.262;10.408;2023-06-14T06:57:45;5.35;;;3.45;;
11504;SDS011;5809;53.262;10.408;2023-06-14T07:00:12;5.40;;;3.90;;
11504;SDS011;5809;53.262;10.408;2023-06-14T07:02:40;4.97;;;3.15;;
11504;SDS011;5809;53.262;10.408;2023-06-14T07:05:07;5.07;;;3.65;;
11504;SDS011;5809;53.262;10.408;2023-06-14T07:07:35;6.75;;;3.58;;
11504;SDS011;5809;53.262;10.408;2023-06-14T07:10:03;5.45;;;3.38;;
11504;SDS011;5809;53.262;10.408;2023-06-14T07:12:30;4.82;;;3.13;;
11504;SDS011;5809;53.262;10.408;2023-06-14T07:14:58;3.95;;;3.05;;
11504;SDS011;5809;53.262;10.408;2023-06-14T07:17:25;4.07;;;3.10;;
11504;SDS011;5809;53.262;10.408;2023-06-14T07:19:52;8.25;;;2.85;;
11504;SDS011;5809;53.262;10.408;2023-06-14T07:22:19;6.97;;;3.25;;
11504;SDS011;5809;53.262;10.408;2023-06-14T07:24:47;3.13;;;2.83;;
11504;SDS011;5809;53.262;10.408;2023-06-14T07:27:14;3.13;;;2.80;;
11504;SDS011;5809;53.262;10.408;2023-06-14T07:29:41;3.22;;;2.80;;
11504;SDS011;5809;53.262;10.408;2023-06-14T07:32:08;2.65;;;2.45;;
11504;SDS011;5809;53.262;10.408;2023-06-14T07:34:35;2.90;;;2.20;;
11504;SDS011;5809;53.262;10.408;2023-06-14T07:37:02;3.03;;;2.50;;
11504;SDS011;5809;53.262;10.408;2023-06-14T07:39:29;5.28;;;2.50;;
11504;SDS011;5809;53.262;10.408;2023-06-14T07:41:57;4.35;;;2.70;;
11504;SDS011;5809;53.262;10.408;2023-06-14T07:44:24;3.83;;;2.38;;
11504;SDS011;5809;53.262;10.408;2023-06-14T07:46:53;2.70;;;2.28;;
11504;SDS011;5809;53.262;10.408;2023-06-14T07:49:23;3.58;;;2.25;;
11504;SDS011;5809;53.262;10.408;2023-06-14T07:51:50;2.90;;;2.60;;
11504;SDS011;5809;53.262;10.408;2023-06-14T07:54:18;4.22;;;2.20;;
11504;SDS011;5809;53.262;10.408;2023-06-14T07:56:45;3.80;;;3.30;;
11504;SDS011;5809;53.262;10.408;2023-06-14T07:59:13;5.28;;;2.97;;
11504;SDS011;5809;53.262;10.408;2023-06-14T08:01:40;4.00;;;2.75;;
11504;SDS011;5809;53.262;10.408;2023-06-14T08:04:13;5.65;;;2.85;;
11504;SDS011;5809;53.262;10.408;2023-06-14T08:06:40;7.75;;;2.90;;
11504;SDS011;5809;53.262;10.408;2023-06-14T08:09:09;7.20;;;2.63;;
11504;SDS011;5809;53.262;10.408;2023-06-14T08:11:36;3.45;;;2.90;;
11504;SDS011;5809;53.262;10.408;2023-06-14T08:14:03;4.75;;;2.80;;
11504;SDS011;5809;53.262;10.408;2023-06-14T08:16:31;4.60;;;2.63;;
11504;SDS011;5809;53.262;10.408;2023-06-14T08:18:58;8.65;;;3.17;;
11504;SDS011;5809;53.262;10.408;2023-06-14T08:21:26;5.35;;;3.13;;
11504;SDS011;5809;53.262;10.408;2023-06-14T08:23:54;5.30;;;2.70;;
11504;SDS011;5809;53.262;10.408;2023-06-14T08:26:21;4.40;;;2.50;;
11504;SDS011;5809;53.262;10.408;2023-06-14T08:28:48;5.22;;;2.88;;
11504;SDS011;5809;53.262;10.408;2023-06-14T08:31:14;4.75;;;3.15;;
11504;SDS011;5809;53.262;10.408;2023-06-14T08:33:43;4.50;;;2.92;;
11504;SDS011;5809;53.262;10.408;2023-06-14T08:36:10;3.38;;;2.80;;
11504;SDS011;5809;53.262;10.408;2023-06-14T08:38:37;6.38;;;3.10;;
11504;SDS011;5809;53.262;10.408;2023-06-14T08:41:05;5.25;;;3.08;;
11504;SDS011;5809;53.262;10.408;2023-06-14T08:43:32;5.47;;;2.85;;
11504;SDS011;5809;53.262;10.408;2023-06-14T08:46:00;7.65;;;3.20;;
11504;SDS011;5809;53.262;10.408;2023-06-14T08:48:29;3.45;;;3.00;;
11504;SDS011;5809;53.262;10.408;2023-06-14T08:51:00;6.07;;;3.10;;
11504;SDS011;5809;53.262;10.408;2023-06-14T08:53:28;5.55;;;3.10;;
11504;SDS011;5809;53.262;10.408;2023-06-14T08:55:59;4.97;;;3.08;;
11504;SDS011;5809;53.262;10.408;2023-06-14T08:58:26;3.90;;;2.90;;
11504;SDS011;5809;53.262;10.408;2023-06-14T09:00:54;3.97;;;3.22;;
11504;SDS011;5809;53.262;10.408;2023-06-14T09:03:22;5.93;;;3.25;;
11504;SDS011;5809;53.262;10.408;2023-06-14T09:05:54;6.68;;;2.90;;
11504;SDS011;5809;53.262;10.408;2023-06-14T09:08:25;5.18;;;3.03;;
11504;SDS011;5809;53.262;10.408;2023-06-14T09:10:55;4.40;;;2.90;;
11504;SDS011;5809;53.262;10.408;2023-06-14T09:13:23;6.97;;;3.20;;
11504;SDS011;5809;53.262;10.408;2023-06-14T09:15:50;6.05;;;2.67;;
11504;SDS011;5809;53.262;10.408;2023-06-14T09:18:17;4.15;;;2.80;;
11504;SDS011;5809;53.262;10.408;2023-06-14T09:20:45;5.18;;;2.97;;
11504;SDS011;5809;53.262;10.408;2023-06-14T09:23:13;6.05;;;2.70;;
11504;SDS011;5809;53.262;10.408;2023-06-14T09:25:45;6.20;;;2.90;;
11504;SDS011;5809;53.262;10.408;2023-06-14T09:28:12;5.38;;;3.05;;
11504;SDS011;5809;53.262;10.408;2023-06-14T09:30:39;4.88;;;2.85;;
11504;SDS011;5809;53.262;10.408;2023-06-14T09:33:06;3.28;;;2.65;;
11504;SDS011;5809;53.262;10.408;2023-06-14T09:35:33;5.70;;;3.05;;
11504;SDS011;5809;53.262;10.408;2023-06-14T09:38:00;5.50;;;2.72;;
11504;SDS011;5809;53.262;10.408;2023-06-14T09:40:27;5.90;;;3.08;;
11504;SDS011;5809;53.262;10.408;2023-06-14T09:42:56;8.27;;;2.65;;
11504;SDS011;5809;53.262;10.408;2023-06-14T09:45:24;6.50;;;2.95;;
11504;SDS011;5809;53.262;10.408;2023-06-14T09:47:54;5.82;;;2.72;;
11504;SDS011;5809;53.262;10.408;2023-06-14T09:50:22;6.80;;;4.72;;
11504;SDS011;5809;53.262;10.408;2023-06-14T09:52:49;4.90;;;3.20;;
11504;SDS011;5809;53.262;10.408;2023-06-14T09:55:21;5.63;;;3.25;;
11504;SDS011;5809;53.262;10.408;2023-06-14T09:57:49;6.53;;;3.10;;
11504;SDS011;5809;53.262;10.408;2023-06-14T10:00:19;6.75;;;3.30;;
11504;SDS011;5809;53.262;10.408;2023-06-14T10:02:48;7.47;;;3.08;;
11504;SDS011;5809;53.262;10.408;2023-06-14T10:05:21;6.55;;;3.35;;
11504;SDS011;5809;53.262;10.408;2023-06-14T10:07:52;4.93;;;3.17;;
11504;SDS011;5809;53.262;10.408;2023-06-14T10:10:22;10.32;;;3.25;;
11504;SDS011;5809;53.262;10.408;2023-06-14T10:12:48;10.68;;;3.55;;
11504;SDS011;5809;53.262;10.408;2023-06-14T10:15:17;4.60;;;3.20;;
11504;SDS011;5809;53.262;10.408;2023-06-14T10:17:56;6.35;;;3.60;;
11504;SDS011;5809;53.262;10.408;2023-06-14T10:20:28;9.57;;;3.63;;
11504;SDS011;5809;53.262;10.408;2023-06-14T10:23:03;6.78;;;3.65;;
11504;SDS011;5809;53.262;10.408;2023-06-14T10:25:35;11.50;;;6.28;;
11504;SDS011;5809;53.262;10.408;2023-06-14T10:28:02;12.05;;;4.30;;
11504;SDS011;5809;53.262;10.408;2023-06-14T10:30:35;7.63;;;2.90;;
11504;SDS011;5809;53.262;10.408;2023-06-14T10:33:05;5.00;;;3.10;;
11504;SDS011;5809;53.262;10.408;2023-06-14T10:35:33;5.25;;;3.05;;
11504;SDS011;5809;53.262;10.408;2023-06-14T10:38:06;5.85;;;2.83;;
11504;SDS011;5809;53.262;10.408;2023-06-14T10:40:34;5.88;;;3.20;;
11504;SDS011;5809;53.262;10.408;2023-06-14T10:48:48;6.97;;;3.00;;
11504;SDS011;5809;53.262;10.408;2023-06-14T10:51:15;3.53;;;2.65;;
11504;SDS011;5809;53.262;10.408;2023-06-14T10:53:45;8.15;;;2.95;;
11504;SDS011;5809;53.262;10.408;2023-06-14T10:56:23;4.93;;;3.22;;
11504;SDS011;5809;53.262;10.408;2023-06-14T10:58:53;5.93;;;3.30;;
11504;SDS011;5809;53.262;10.408;2023-06-14T11:01:31;3.25;;;2.92;;
11504;SDS011;5809;53.262;10.408;2023-06-14T11:04:09;5.95;;;3.05;;
11504;SDS011;5809;53.262;10.408;2023-06-14T11:06:45;7.97;;;3.08;;
11504;SDS011;5809;53.262;10.408;2023-06-14T11:12:19;5.95;;;3.35;;
11504;SDS011;5809;53.262;10.408;2023-06-14T11:14:47;6.22;;;3.08;;
11504;SDS011;5809;53.262;10.408;2023-06-14T11:17:16;6.80;;;3.20;;
11504;SDS011;5809;53.262;10.408;2023-06-14T11:19:43;6.65;;;2.90;;
11504;SDS011;5809;53.262;10.408;2023-06-14T11:22:10;6.22;;;2.80;;
11504;SDS011;5809;53.262;10.408;2023-06-14T11:24:39;7.80;;;2.85;;
11504;SDS011;5809;53.262;10.408;2023-06-14T11:27:06;4.28;;;2.80;;
11504;SDS011;5809;53.262;10.408;2023-06-14T11:29:33;3.88;;;2.78;;
11504;SDS011;5809;53.262;10.408;2023-06-14T11:32:00;5.32;;;2.90;;
11504;SDS011;5809;53.262;10.408;2023-06-14T11:34:29;5.43;;;2.90;;
11504;SDS011;5809;53.262;10.408;2023-06-14T11:36:56;4.10;;;2.60;;
11504;SDS011;5809;53.262;10.408;2023-06-14T11:39:24;5.45;;;3.15;;
11504;SDS011;5809;53.262;10.408;2023-06-14T11:41:52;5.80;;;3.17;;
11504;SDS011;5809;53.262;10.408;2023-06-14T11:44:20;7.13;;;3.13;;
11504;SDS011;5809;53.262;10.408;2023-06-14T11:46:47;7.63;;;3.20;;
11504;SDS011;5809;53.262;10.408;2023-06-14T11:49:15;7.18;;;2.90;;
11504;SDS011;5809;53.262;10.408;2023-06-14T11:51:43;5.32;;;2.65;;
11504;SDS011;5809;53.262;10.408;2023-06-14T11:54:11;9.27;;;3.47;;
11504;SDS011;5809;53.262;10.408;2023-06-14T11:56:38;7.20;;;3.30;;
11504;SDS011;5809;53.262;10.408;2023-06-14T11:59:05;7.70;;;3.17;;
11504;SDS011;5809;53.262;10.408;2023-06-14T12:01:35;3.50;;;2.80;;
11504;SDS011;5809;53.262;10.408;2023-06-14T12:04:03;7.40;;;3.03;;
11504;SDS011;5809;53.262;10.408;2023-06-14T12:06:30;4.72;;;2.80;;
11504;SDS011;5809;53.262;10.408;2023-06-14T12:09:06;6.38;;;2.90;;
11504;SDS011;5809;53.262;10.408;2023-06-14T12:11:38;5.25;;;2.70;;
11504;SDS011;5809;53.262;10.408;2023-06-14T12:14:05;5.90;;;2.70;;
11504;SDS011;5809;53.262;10.408;2023-06-14T12:16:35;6.30;;;2.85;;
11504;SDS011;5809;53.262;10.408;2023-06-14T12:19:11;5.55;;;2.63;;
11504;SDS011;5809;53.262;10.408;2023-06-14T12:21:40;5.35;;;2.72;;
11504;SDS011;5809;53.262;10.408;2023-06-14T12:24:08;10.52;;;7.68;;
11504;SDS011;5809;53.262;10.408;2023-06-14T12:26:37;8.73;;;3.13;;
11504;SDS011;5809;53.262;10.408;2023-06-14T12:29:05;6.15;;;3.10;;
11504;SDS011;5809;53.262;10.408;2023-06-14T12:31:33;4.18;;;2.78;;
11504;SDS011;5809;53.262;10.408;2023-06-14T12:34:00;6.43;;;3.03;;
11504;SDS011;5809;53.262;10.408;2023-06-14T12:36:27;4.78;;;2.50;;
11504;SDS011;5809;53.262;10.408;2023-06-14T12:38:54;6.72;;;2.63;;
11504;SDS011;5809;53.262;10.408;2023-06-14T12:41:22;7.55;;;2.70;;
11504;SDS011;5809;53.262;10.408;2023-06-14T12:43:49;4.80;;;2.55;;
11504;SDS011;5809;53.262;10.408;2023-06-14T12:46:16;9.10;;;2.65;;
11504;SDS011;5809;53.262;10.408;2023-06-14T12:48:43;5.90;;;2.80;;
11504;SDS011;5809;53.262;10.408;2023-06-14T12:51:10;18.60;;;2.80;;
11504;SDS011;5809;53.262;10.408;2023-06-14T12:53:37;9.00;;;2.70;;
11504;SDS011;5809;53.262;10.408;2023-06-14T12:56:05;4.30;;;2.72;;
11504;SDS011;5809;53.262;10.408;2023-06-14T12:58:33;11.10;;;2.80;;
11504;SDS011;5809;53.262;10.408;2023-06-14T13:01:00;4.95;;;2.60;;
11504;SDS011;5809;53.262;10.408;2023-06-14T13:03:27;3.55;;;2.60;;
11504;SDS011;5809;53.262;10.408;2023-06-14T13:05:54;5.03;;;2.83;;
11504;SDS011;5809;53.262;10.408;2023-06-14T13:08:21;4.32;;;2.60;;
11504;SDS011;5809;53.262;10.408;2023-06-14T13:10:48;2.83;;;2.55;;
11504;SDS011;5809;53.262;10.408;2023-06-14T13:13:15;6.97;;;3.05;;
11504;SDS011;5809;53.262;10.408;2023-06-14T13:15:43;4.70;;;2.60;;
11504;SDS011;5809;53.262;10.408;2023-06-14T13:18:11;4.88;;;2.85;;
11504;SDS011;5809;53.262;10.408;2023-06-14T13:20:38;4.70;;;2.47;;
11504;SDS011;5809;53.262;10.408;2023-06-14T13:23:05;3.78;;;2.55;;
11504;SDS011;5809;53.262;10.408;2023-06-14T13:25:32;4.80;;;2.97;;
11504;SDS011;5809;53.262;10.408;2023-06-14T13:27:59;5.25;;;2.70;;
11504;SDS011;5809;53.262;10.408;2023-06-14T13:30:26;11.15;;;3.22;;
11504;SDS011;5809;53.262;10.408;2023-06-14T13:32:54;3.42;;;2.90;;
11504;SDS011;5809;53.262;10.408;2023-06-14T13:35:22;3.50;;;2.40;;
11504;SDS011;5809;53.262;10.408;2023-06-14T13:37:49;4.88;;;2.95;;
11504;SDS011;5809;53.262;10.408;2023-06-14T13:40:16;10.77;;;2.88;;
11504;SDS011;5809;53.262;10.408;2023-06-14T13:42:43;6.53;;;2.72;;
11504;SDS011;5809;53.262;10.408;2023-06-14T13:45:11;7.88;;;3.25;;
11504;SDS011;5809;53.262;10.408;2023-06-14T13:47:38;7.40;;;3.10;;
11504;SDS011;5809;53.262;10.408;2023-06-14T13:50:07;5.38;;;2.50;;
11504;SDS011;5809;53.262;10.408;2023-06-14T13:52:34;7.85;;;3.20;;
11504;SDS011;5809;53.262;10.408;2023-06-14T13:55:02;6.95;;;2.95;;
11504;SDS011;5809;53.262;10.408;2023-06-14T13:57:30;6.18;;;2.85;;
11504;SDS011;5809;53.262;10.408;2023-06-14T13:59:57;6.45;;;2.85;;
11504;SDS011;5809;53.262;10.408;2023-06-14T14:02:26;8.35;;;2.70;;
11504;SDS011;5809;53.262;10.408;2023-06-14T14:04:53;5.82;;;2.92;;
11504;SDS011;5809;53.262;10.408;2023-06-14T14:07:22;4.93;;;2.75;;
11504;SDS011;5809;53.262;10.408;2023-06-14T14:09:48;10.07;;;3.10;;
11504;SDS011;5809;53.262;10.408;2023-06-14T14:12:16;5.65;;;2.63;;
11504;SDS011;5809;53.262;10.408;2023-06-14T14:14:43;6.50;;;4.70;;
11504;SDS011;5809;53.262;10.408;2023-06-14T14:17:11;6.63;;;2.97;;
11504;SDS011;5809;53.262;10.408;2023-06-14T14:19:38;5.82;;;3.17;;
11504;SDS011;5809;53.262;10.408;2023-06-14T14:22:05;8.18;;;3.00;;
11504;SDS011;5809;53.262;10.408;2023-06-14T14:24:33;3.63;;;3.00;;
11504;SDS011;5809;53.262;10.408;2023-06-14T14:27:00;12.73;;;4.78;;
11504;SDS011;5809;53.262;10.408;2023-06-14T14:29:27;7.00;;;3.10;;
11504;SDS011;5809;53.262;10.408;2023-06-14T14:31:55;8.25;;;3.20;;
11504;SDS011;5809;53.262;10.408;2023-06-14T14:34:22;5.97;;;2.83;;
11504;SDS011;5809;53.262;10.408;2023-06-14T14:36:50;4.32;;;2.85;;
11504;SDS011;5809;53.262;10.408;2023-06-14T14:39:17;11.98;;;4.05;;
11504;SDS011;5809;53.262;10.408;2023-06-14T14:41:45;6.60;;;3.70;;
11504;SDS011;5809;53.262;10.408;2023-06-14T14:44:12;4.03;;;3.00;;
11504;SDS011;5809;53.262;10.408;2023-06-14T14:46:39;6.35;;;2.80;;
11504;SDS011;5809;53.262;10.408;2023-06-14T14:49:06;5.57;;;2.70;;
11504;SDS011;5809;53.262;10.408;2023-06-14T14:51:33;8.20;;;3.60;;
11504;SDS011;5809;53.262;10.408;2023-06-14T14:53:59;6.70;;;3.10;;
11504;SDS011;5809;53.262;10.408;2023-06-14T14:56:26;6.97;;;2.92;;
11504;SDS011;5809;53.262;10.408;2023-06-14T14:58:55;6.93;;;4.40;;
11504;SDS011;5809;53.262;10.408;2023-06-14T15:01:21;7.00;;;5.00;;